Time;durP1;ratioP1;P1;durP2;ratioP2;P2;SDS_P1;SDS_P2;PMS_P1;PMS_P2;Temp;Humidity;BMP_temperature;BMP_pressure;BME280_temperature;BME280_humidity;BME280_pressure;Samples;Min_cycle;Max_cycle;Signal;HPM_P1;HPM_P2
2023/04/11 00:04:41;;;;;;;;;;;;;;;8.84;100.00;95475.88;10538433;28;1917;-80
2023/04/11 00:09:44;;;;;;;;;;;;;;;8.86;100.00;95462.19;10504111;28;1469;-79
2023/04/11 00:14:47;;;;;;;;;;;;;;;8.86;100.00;95438.88;10518894;28;1136;-80
2023/04/11 00:19:52;;;;;;;;;;;;;;;8.91;100.00;95449.59;10521920;28;1345;-80
2023/04/11 00:24:54;;;;;;;;;;;;;;;8.97;100.00;95436.16;10516726;28;1910;-79
2023/04/11 00:29:57;;;;;;;;;;;;;;;9.10;100.00;95439.09;10513023;28;1479;-79
2023/04/11 00:34:59;;;;;;;;;;;;;;;9.17;100.00;95431.56;10514855;28;1108;-79
2023/04/11 00:40:04;;;;;;;;;;;;;;;9.26;100.00;95422.97;10520604;28;1645;-78
2023/04/11 00:45:06;;;;;;;;;;;;;;;9.32;100.00;95411.13;10535093;28;1886;-79
2023/04/11 00:50:12;;;;;;;;;;;;;;;9.42;100.00;95395.00;10522394;28;1455;-79
2023/04/11 00:55:16;;;;;;;;;;;;;;;9.47;100.00;95382.34;10535127;28;1179;-80
2023/04/11 01:00:19;;;;;;;;;;;;;;;9.46;100.00;95379.94;10534305;28;1515;-80
2023/04/11 01:05:23;;;;;;;;;;;;;;;9.47;100.00;95377.00;10525956;28;1980;-80
2023/04/11 01:10:27;;;;;;;;;;;;;;;9.54;100.00;95386.63;10524658;28;1514;-79
2023/04/11 01:15:30;;;;;;;;;;;;;;;9.58;100.00;95388.47;10534538;28;1191;-80
2023/04/11 01:20:33;;;;;;;;;;;;;;;9.67;100.00;95402.94;10517460;28;1490;-79
2023/04/11 01:25:36;;;;;;;;;;;;;;;9.73;100.00;95391.09;10499384;28;1909;-81
2023/04/11 01:30:38;;;;;;;;;;;;;;;9.80;100.00;95374.69;10510089;28;1491;-79
2023/04/11 01:35:41;;;;;;;;;;;;;;;9.84;100.00;95359.59;10525853;28;1104;-80
2023/04/11 01:40:44;;;;;;;;;;;;;;;9.90;100.00;95353.13;10528375;28;1428;-80
2023/04/11 01:45:46;;;;;;;;;;;;;;;9.91;100.00;95359.28;10532365;28;1911;-79
2023/04/11 01:50:50;;;;;;;;;;;;;;;9.87;100.00;95351.00;10533259;28;1408;-78
2023/04/11 01:55:54;;;;;;;;;;;;;;;9.85;100.00;95361.22;10522878;28;1123;-80
2023/04/11 02:00:57;;;;;;;;;;;;;;;9.74;100.00;95357.81;10530478;28;1526;-78
2023/04/11 02:05:59;;;;;;;;;;;;;;;9.67;100.00;95335.84;10515750;28;1975;-77
2023/04/11 02:11:02;;;;;;;;;;;;;;;9.81;100.00;95316.44;10535210;28;1518;-79
2023/04/11 02:16:04;;;;;;;;;;;;;;;9.91;100.00;95305.59;10541633;28;1159;-79
2023/04/11 02:21:07;;;;;;;;;;;;;;;9.99;100.00;95308.50;10515830;28;1369;-79
2023/04/11 02:26:10;;;;;;;;;;;;;;;10.16;100.00;95283.09;10523546;28;1902;-79
2023/04/11 02:31:13;;;;;;;;;;;;;;;10.25;100.00;95284.16;10532924;28;1195;-78
2023/04/11 02:36:16;;;;;;;;;;;;;;;10.44;100.00;95276.16;10511483;28;1392;-79
2023/04/11 02:41:19;;;;;;;;;;;;;;;10.64;100.00;95259.81;10520872;28;1464;-79
2023/04/11 02:46:22;;;;;;;;;;;;;;;10.76;96.66;95246.78;10521198;28;1918;-80
2023/04/11 02:51:26;;;;;;;;;;;;;;;10.82;92.56;95244.84;10540784;28;1507;-79
2023/04/11 02:56:29;;;;;;;;;;;;;;;10.92;89.61;95260.81;10523921;28;1138;-80
2023/04/11 03:01:33;;;;;;;;;;;;;;;10.85;92.64;95248.81;10544037;28;1487;-79
2023/04/11 03:06:35;;;;;;;;;;;;;;;10.74;93.68;95243.56;10514380;28;1919;-80
2023/04/11 03:11:38;;;;;;;;;;;;;;;10.76;91.15;95241.41;10531764;28;1693;-78
2023/04/11 03:16:41;;;;;;;;;;;;;;;10.81;90.45;95249.41;10522863;28;1139;-78
2023/04/11 03:21:44;;;;;;;;;;;;;;;10.85;93.13;95240.75;10508848;28;1456;-79
2023/04/11 03:26:47;;;;;;;;;;;;;;;10.83;91.97;95231.09;10538015;28;1984;-79
2023/04/11 03:31:50;;;;;;;;;;;;;;;10.83;91.65;95228.41;10527899;28;1720;-78
2023/04/11 03:36:53;;;;;;;;;;;;;;;10.87;88.86;95225.13;10526792;28;1606;-78
2023/04/11 03:41:56;;;;;;;;;;;;;;;10.93;85.31;95218.59;10522790;28;1499;-78
2023/04/11 03:46:59;;;;;;;;;;;;;;;10.90;87.14;95224.56;10533813;28;1961;-79
2023/04/11 03:52:02;;;;;;;;;;;;;;;11.02;92.50;95206.91;10501606;28;1510;-79
2023/04/11 03:57:04;;;;;;;;;;;;;;;10.94;88.70;95206.75;10522347;28;1490;-81
2023/04/11 04:02:07;;;;;;;;;;;;;;;10.78;90.47;95200.78;10527623;28;1116;-79
2023/04/11 04:07:12;;;;;;;;;;;;;;;10.79;89.43;95187.03;10530561;28;1971;-80
2023/04/11 04:12:16;;;;;;;;;;;;;;;10.85;85.72;95179.72;10524500;28;1562;-79
2023/04/11 04:17:20;;;;;;;;;;;;;;;10.94;84.36;95179.84;10529969;28;1376;-80
2023/04/11 04:22:25;;;;;;;;;;;;;;;10.94;84.33;95182.53;10526463;28;1424;-80
2023/04/11 04:27:27;;;;;;;;;;;;;;;11.02;82.52;95177.34;10511240;28;1909;-79
2023/04/11 04:32:30;;;;;;;;;;;;;;;11.06;79.40;95194.47;10525736;28;1447;-80
2023/04/11 04:37:32;;;;;;;;;;;;;;;11.12;78.38;95219.41;10518584;28;1116;-79
2023/04/11 04:42:35;;;;;;;;;;;;;;;11.02;98.96;95233.81;10524650;28;1595;-79
2023/04/11 04:47:37;;;;;;;;;;;;;;;10.76;100.00;95236.03;10518215;28;1914;-78
2023/04/11 04:52:40;;;;;;;;;;;;;;;10.65;100.00;95223.00;10525209;28;1498;-79
2023/04/11 04:57:43;;;;;;;;;;;;;;;10.54;100.00;95222.28;10519769;28;1551;-78
2023/04/11 05:02:46;;;;;;;;;;;;;;;10.76;100.00;95219.91;10515001;28;1714;-79
2023/04/11 05:07:49;;;;;;;;;;;;;;;11.03;100.00;95186.19;10512618;28;1934;-79
2023/04/11 05:12:52;;;;;;;;;;;;;;;11.38;100.00;95228.72;10519156;28;1475;-79
2023/04/11 05:17:54;;;;;;;;;;;;;;;11.46;100.00;95227.28;10517855;28;1486;-77
2023/04/11 05:22:56;;;;;;;;;;;;;;;11.17;100.00;95216.66;10535388;28;1195;-78
2023/04/11 05:27:59;;;;;;;;;;;;;;;10.87;100.00;95241.25;10543228;28;1917;-79
2023/04/11 05:33:03;;;;;;;;;;;;;;;10.85;100.00;95232.69;10523558;28;1111;-80
2023/04/11 05:38:05;;;;;;;;;;;;;;;10.92;100.00;95230.44;10533979;28;1506;-79
2023/04/11 05:43:12;;;;;;;;;;;;;;;10.94;100.00;95241.72;10513809;28;1490;-79
2023/04/11 05:48:15;;;;;;;;;;;;;;;11.01;100.00;95242.19;10509918;28;1906;-80
2023/04/11 05:53:18;;;;;;;;;;;;;;;10.99;100.00;95218.25;10532517;28;1460;-79
2023/04/11 05:58:22;;;;;;;;;;;;;;;10.95;100.00;95235.25;10539466;28;1439;-78
2023/04/11 06:03:24;;;;;;;;;;;;;;;10.86;100.00;95240.47;10534409;28;1167;-78
2023/04/11 06:08:27;;;;;;;;;;;;;;;10.65;100.00;95261.41;10531543;28;1910;-80
2023/04/11 06:13:29;;;;;;;;;;;;;;;10.66;100.00;95257.63;10525438;28;1455;-80
2023/04/11 06:18:32;;;;;;;;;;;;;;;10.64;100.00;95251.75;10537689;28;1420;-80
2023/04/11 06:23:35;;;;;;;;;;;;;;;10.54;100.00;95252.66;10534062;28;1088;-78
2023/04/11 06:28:38;;;;;;;;;;;;;;;10.50;100.00;95269.66;10529649;28;1905;-80
2023/04/11 06:33:40;;;;;;;;;;;;;;;10.50;100.00;95280.41;10515987;28;1041;-80
2023/04/11 06:38:44;;;;;;;;;;;;;;;10.53;100.00;95287.88;10524265;28;1451;-81
2023/04/11 06:43:46;;;;;;;;;;;;;;;10.49;100.00;95297.59;10512682;28;1673;-79
2023/04/11 06:48:49;;;;;;;;;;;;;;;10.18;100.00;95300.56;10541561;28;1918;-79
2023/04/11 06:53:53;;;;;;;;;;;;;;;9.40;100.00;95324.72;10534001;28;1178;-79
2023/04/11 06:58:56;;;;;;;;;;;;;;;9.25;100.00;95330.16;10528473;28;1610;-78
2023/04/11 07:03:59;;;;;;;;;;;;;;;9.13;100.00;95325.94;10547900;28;1100;-78
2023/04/11 07:09:02;;;;;;;;;;;;;;;9.13;100.00;95341.22;10520299;28;1910;-77
2023/04/11 07:14:04;;;;;;;;;;;;;;;9.04;100.00;95346.34;10543909;28;1694;-78
2023/04/11 07:19:07;;;;;;;;;;;;;;;8.95;100.00;95374.78;10538744;28;1124;-79
2023/04/11 07:24:12;;;;;;;;;;;;;;;8.78;100.00;95367.06;10523595;28;1669;-80
2023/04/11 07:29:14;;;;;;;;;;;;;;;8.59;100.00;95374.09;10530656;28;1969;-80
2023/04/11 07:34:17;;;;;;;;;;;;;;;8.59;100.00;95382.91;10533787;28;1447;-81
2023/04/11 07:39:19;;;;;;;;;;;;;;;8.44;100.00;95392.84;10496054;28;1507;-82
2023/04/11 07:44:21;;;;;;;;;;;;;;;8.30;100.00;95401.38;10510574;28;1732;-82
2023/04/11 07:49:26;;;;;;;;;;;;;;;8.24;100.00;95431.91;10536931;28;1902;-78
2023/04/11 07:54:29;;;;;;;;;;;;;;;8.15;100.00;95443.41;10502410;28;1171;-80
2023/04/11 07:59:32;;;;;;;;;;;;;;;7.96;100.00;95445.78;10507600;28;1530;-79
2023/04/11 08:04:35;;;;;;;;;;;;;;;8.09;100.00;95438.06;10527203;28;1733;-80
2023/04/11 08:09:38;;;;;;;;;;;;;;;8.17;100.00;95454.66;10527676;28;1914;-81
2023/04/11 08:14:40;;;;;;;;;;;;;;;7.93;100.00;95449.00;10515919;28;1061;-80
2023/04/11 08:19:43;;;;;;;;;;;;;;;7.80;100.00;95469.03;10521379;28;1483;-81
2023/04/11 08:24:46;;;;;;;;;;;;;;;7.79;100.00;95475.44;10520084;28;1534;-80
2023/04/11 08:29:49;;;;;;;;;;;;;;;7.38;100.00;95464.59;10536870;28;1910;-79
2023/04/11 08:34:52;;;;;;;;;;;;;;;7.49;100.00;95482.28;10534238;28;1566;-81
2023/04/11 08:39:56;;;;;;;;;;;;;;;7.66;100.00;95460.69;10518280;28;1534;-79
2023/04/11 08:44:59;;;;;;;;;;;;;;;8.06;100.00;95462.66;10518434;28;1159;-81
2023/04/11 08:50:02;;;;;;;;;;;;;;;8.24;100.00;95482.78;10535137;28;1925;-79
2023/04/11 08:55:04;;;;;;;;;;;;;;;8.24;100.00;95449.84;10525918;28;1167;-79
2023/04/11 09:00:13;;;;;;;;;;;;;;;8.28;100.00;95464.31;10529162;28;1428;-79
2023/04/11 09:05:17;;;;;;;;;;;;;;;8.58;100.00;95448.25;10515690;28;1538;-80
2023/04/11 09:10:28;;;;;;;;;;;;;;;8.57;100.00;95476.13;10519199;28;1963;-80
2023/04/11 09:15:33;;;;;;;;;;;;;;;8.49;100.00;95487.41;10524836;28;1226;-80
2023/04/11 09:20:36;;;;;;;;;;;;;;;8.47;100.00;95486.06;10525722;28;1400;-80
2023/04/11 09:25:38;;;;;;;;;;;;;;;8.70;100.00;95493.56;10525692;28;1171;-80
2023/04/11 09:30:43;;;;;;;;;;;;;;;8.21;100.00;95480.66;10514084;28;1922;-79
2023/04/11 09:35:46;;;;;;;;;;;;;;;8.48;100.00;95487.66;10518870;28;1156;-81
2023/04/11 09:40:48;;;;;;;;;;;;;;;8.66;100.00;95500.53;10511637;28;1474;-80
2023/04/11 09:45:51;;;;;;;;;;;;;;;8.48;100.00;95515.25;10517459;28;1493;-81
2023/04/11 09:50:56;;;;;;;;;;;;;;;8.52;100.00;95521.66;10522228;28;1978;-80
2023/04/11 09:56:01;;;;;;;;;;;;;;;8.38;100.00;95521.38;10526987;28;1444;-82
2023/04/11 10:01:06;;;;;;;;;;;;;;;8.46;100.00;95514.72;10525845;28;1127;-81
2023/04/11 10:06:08;;;;;;;;;;;;;;;8.50;100.00;95523.03;10539950;28;1507;-79
2023/04/11 10:11:13;;;;;;;;;;;;;;;8.78;100.00;95529.72;10541249;28;1913;-79
2023/04/11 10:16:15;;;;;;;;;;;;;;;8.90;100.00;95525.69;10506174;28;1660;-79
2023/04/11 10:21:18;;;;;;;;;;;;;;;8.84;100.00;95534.00;10540631;28;1454;-78
2023/04/11 10:26:20;;;;;;;;;;;;;;;8.78;100.00;95535.09;10515185;28;1136;-79
2023/04/11 10:31:25;;;;;;;;;;;;;;;8.96;100.00;95518.47;10538951;28;1976;-79
2023/04/11 10:36:28;;;;;;;;;;;;;;;8.92;100.00;95517.41;10525624;28;1223;-78
2023/04/11 10:41:32;;;;;;;;;;;;;;;8.96;100.00;95526.50;10538599;28;1467;-79
2023/04/11 10:46:34;;;;;;;;;;;;;;;9.32;100.00;95534.53;10531699;28;1183;-78
2023/04/11 10:51:37;;;;;;;;;;;;;;;10.14;100.00;95543.91;10522434;28;1914;-78
2023/04/11 10:56:39;;;;;;;;;;;;;;;10.61;100.00;95533.72;10531323;28;1214;-79
2023/04/11 11:01:41;;;;;;;;;;;;;;;10.62;100.00;95540.72;10543153;28;1479;-80
2023/04/11 11:06:53;;;;;;;;;;;;;;;10.71;100.00;95539.06;10548247;28;1132;-79
2023/04/11 11:11:58;;;;;;;;;;;;;;;10.38;100.00;95540.63;10513313;28;1669;-79
2023/04/11 11:17:01;;;;;;;;;;;;;;;11.42;100.00;95530.38;10527628;28;1148;-81
2023/04/11 11:22:05;;;;;;;;;;;;;;;11.22;100.00;95534.06;10530918;28;1669;-80
2023/04/11 11:27:08;;;;;;;;;;;;;;;10.53;100.00;95543.19;10523417;28;1986;-80
2023/04/11 11:32:11;;;;;;;;;;;;;;;10.25;100.00;95540.13;10507254;28;1677;-79
2023/04/11 11:37:14;;;;;;;;;;;;;;;10.62;100.00;95557.63;10526075;28;1492;-79
2023/04/11 11:42:17;;;;;;;;;;;;;;;10.70;100.00;95557.06;10522961;28;1470;-79
2023/04/11 11:47:21;;;;;;;;;;;;;;;10.86;100.00;95570.41;10497184;28;1909;-78
2023/04/11 11:52:23;;;;;;;;;;;;;;;10.96;100.00;95557.69;10521355;28;1278;-78
2023/04/11 11:57:27;;;;;;;;;;;;;;;10.99;100.00;95572.44;10535799;28;1384;-78
2023/04/11 12:02:29;;;;;;;;;;;;;;;10.80;100.00;95572.31;10542677;28;1230;-80
2023/04/11 12:07:32;;;;;;;;;;;;;;;11.47;100.00;95567.22;10531876;28;1910;-79
2023/04/11 12:12:35;;;;;;;;;;;;;;;11.79;100.00;95580.88;10518219;28;1487;-80
2023/04/11 12:17:37;;;;;;;;;;;;;;;12.12;100.00;95532.56;10524999;28;1187;-79
2023/04/11 12:22:40;;;;;;;;;;;;;;;11.89;100.00;95543.06;10535576;28;1535;-78
2023/04/11 12:27:42;;;;;;;;;;;;;;;12.34;100.00;95540.09;10526722;28;1930;-81
2023/04/11 12:32:45;;;;;;;;;;;;;;;12.50;97.37;95551.50;10526533;28;1475;-78
2023/04/11 12:37:47;;;;;;;;;;;;;;;12.43;86.40;95552.66;10509051;28;1491;-80
2023/04/11 12:42:50;;;;;;;;;;;;;;;13.14;88.37;95528.38;10517558;28;1510;-78
2023/04/11 12:47:59;;;;;;;;;;;;;;;13.10;83.64;95527.38;10521465;28;2032;-79
2023/04/11 12:53:02;;;;;;;;;;;;;;;12.45;84.48;95534.28;10527692;28;1553;-80
2023/04/11 12:58:06;;;;;;;;;;;;;;;12.60;78.24;95545.97;10517806;28;1002;-79
2023/04/11 13:03:09;;;;;;;;;;;;;;;12.64;77.42;95546.97;10529346;28;1563;-79
2023/04/11 13:08:13;;;;;;;;;;;;;;;12.38;79.53;95533.03;10506400;28;1913;-81
2023/04/11 13:13:16;;;;;;;;;;;;;;;11.95;80.02;95546.50;10525555;28;1447;-79
2023/04/11 13:18:20;;;;;;;;;;;;;;;11.93;87.79;95543.31;10520294;28;1416;-79
2023/04/11 13:23:25;;;;;;;;;;;;;;;11.58;91.40;95544.50;10537705;28;1716;-80
2023/04/11 13:28:28;;;;;;;;;;;;;;;11.85;88.32;95535.88;10526885;28;1914;-80
2023/04/11 13:33:30;;;;;;;;;;;;;;;11.46;88.24;95538.69;10509746;28;1076;-79
2023/04/11 13:38:33;;;;;;;;;;;;;;;11.36;90.00;95526.94;10523962;28;1558;-80
2023/04/11 13:43:35;;;;;;;;;;;;;;;11.69;88.07;95510.97;10541138;28;1514;-79
2023/04/11 13:48:38;;;;;;;;;;;;;;;12.22;86.35;95500.13;10528853;28;1910;-81
2023/04/11 13:53:40;;;;;;;;;;;;;;;12.38;84.03;95495.31;10534428;28;1148;-79
2023/04/11 13:58:44;;;;;;;;;;;;;;;12.31;82.46;95498.38;10525505;28;1415;-80
2023/04/11 14:03:46;;;;;;;;;;;;;;;12.26;81.23;95493.03;10536043;28;1167;-79
2023/04/11 14:08:50;;;;;;;;;;;;;;;12.54;80.49;95488.63;10522816;28;1910;-79
2023/04/11 14:13:53;;;;;;;;;;;;;;;12.71;89.54;95483.47;10517024;28;1555;-80
2023/04/11 14:18:56;;;;;;;;;;;;;;;12.64;92.80;95479.56;10531440;28;1407;-80
2023/04/11 14:23:59;;;;;;;;;;;;;;;12.63;96.54;95499.53;10519202;28;1151;-80
2023/04/11 14:29:03;;;;;;;;;;;;;;;12.85;97.59;95494.34;10532560;28;1979;-79
2023/04/11 14:34:05;;;;;;;;;;;;;;;13.21;100.00;95496.44;10540153;28;1131;-78
2023/04/11 14:39:08;;;;;;;;;;;;;;;12.77;100.00;95503.06;10526548;28;1479;-78
2023/04/11 14:44:10;;;;;;;;;;;;;;;12.23;100.00;95501.72;10530736;28;1674;-78
2023/04/11 14:49:13;;;;;;;;;;;;;;;11.86;100.00;95503.25;10525711;28;1914;-78
2023/04/11 14:54:16;;;;;;;;;;;;;;;11.81;100.00;95510.59;10525253;28;971;-79
2023/04/11 14:59:18;;;;;;;;;;;;;;;11.73;100.00;95512.00;10513632;28;1470;-80
2023/04/11 15:04:21;;;;;;;;;;;;;;;11.51;100.00;95509.00;10537144;28;1072;-78
2023/04/11 15:09:24;;;;;;;;;;;;;;;11.54;100.00;95500.38;10544199;28;1976;-80
2023/04/11 15:14:29;;;;;;;;;;;;;;;12.15;100.00;95497.78;10506459;28;1107;-80
2023/04/11 15:19:32;;;;;;;;;;;;;;;12.73;100.00;95482.41;10511981;28;1444;-79
2023/04/11 15:24:34;;;;;;;;;;;;;;;12.47;100.00;95481.97;10537022;28;1270;-79
2023/04/11 15:29:37;;;;;;;;;;;;;;;12.20;100.00;95472.63;10535643;28;1913;-79
2023/04/11 15:34:40;;;;;;;;;;;;;;;11.99;100.00;95468.63;10519423;28;1542;-80
2023/04/11 15:39:43;;;;;;;;;;;;;;;11.92;100.00;95454.72;10522085;28;1456;-80
2023/04/11 15:44:46;;;;;;;;;;;;;;;11.77;100.00;95455.66;10539391;28;1700;-80
2023/04/11 15:49:50;;;;;;;;;;;;;;;11.38;100.00;95462.84;10525645;28;1959;-78
2023/04/11 15:54:53;;;;;;;;;;;;;;;11.34;100.00;95469.91;10524336;28;1140;-79
2023/04/11 15:59:55;;;;;;;;;;;;;;;11.13;100.00;95473.88;10522467;28;1388;-79
2023/04/11 16:04:59;;;;;;;;;;;;;;;11.50;100.00;95481.28;10535978;28;1175;-79
2023/04/11 16:10:02;;;;;;;;;;;;;;;11.39;100.00;95460.97;10514786;28;1973;-79
2023/04/11 16:15:05;;;;;;;;;;;;;;;10.93;100.00;95460.63;10511373;28;1136;-78
2023/04/11 16:20:16;;;;;;;;;;;;;;;10.52;100.00;95488.66;10517951;28;1475;-78
2023/04/11 16:25:20;;;;;;;;;;;;;;;10.17;100.00;95480.78;10534912;28;1325;-79
2023/04/11 16:30:24;;;;;;;;;;;;;;;9.82;100.00;95481.78;10511058;28;1891;-79
2023/04/11 16:35:26;;;;;;;;;;;;;;;9.60;100.00;95482.13;10527856;28;1404;-78
2023/04/11 16:40:30;;;;;;;;;;;;;;;9.51;100.00;95483.78;10515465;28;1574;-79
2023/04/11 16:45:33;;;;;;;;;;;;;;;9.44;100.00;95487.56;10508151;28;1186;-79
2023/04/11 16:50:37;;;;;;;;;;;;;;;9.36;100.00;95484.63;10530716;28;1909;-78
2023/04/11 16:55:40;;;;;;;;;;;;;;;9.38;100.00;95485.16;10536140;28;1460;-79
2023/04/11 17:00:42;;;;;;;;;;;;;;;9.56;100.00;95492.63;10530132;28;1199;-80
2023/04/11 17:05:46;;;;;;;;;;;;;;;9.60;100.00;95490.97;10518089;28;1681;-81
2023/04/11 17:10:48;;;;;;;;;;;;;;;9.52;100.00;95488.84;10528215;28;1925;-81
2023/04/11 17:15:51;;;;;;;;;;;;;;;9.33;100.00;95494.00;10534143;28;1057;-80
2023/04/11 17:20:54;;;;;;;;;;;;;;;9.05;100.00;95498.09;10509580;28;1494;-80
2023/04/11 17:25:57;;;;;;;;;;;;;;;8.78;100.00;95494.88;10521286;28;1128;-79
2023/04/11 17:31:00;;;;;;;;;;;;;;;8.61;100.00;95495.16;10519383;28;1913;-79
2023/04/11 17:36:04;;;;;;;;;;;;;;;8.48;100.00;95501.06;10534112;28;1184;-81
2023/04/11 17:41:06;;;;;;;;;;;;;;;8.38;100.00;95504.50;10517629;28;1717;-78
2023/04/11 17:46:19;;;;;;;;;;;;;;;8.29;100.00;95504.22;10520389;28;1135;-79
2023/04/11 17:51:21;;;;;;;;;;;;;;;8.23;100.00;95510.63;10523603;28;1976;-79
2023/04/11 17:56:24;;;;;;;;;;;;;;;8.19;100.00;95506.06;10534594;28;1108;-79
2023/04/11 18:01:30;;;;;;;;;;;;;;;8.06;100.00;95513.53;10516958;28;1411;-81
2023/04/11 18:06:34;;;;;;;;;;;;;;;7.95;100.00;95514.59;10527493;28;1190;-79
2023/04/11 18:11:37;;;;;;;;;;;;;;;7.86;100.00;95513.47;10505993;28;1914;-81
2023/04/11 18:16:40;;;;;;;;;;;;;;;7.73;100.00;95508.59;10518147;28;1044;-81
2023/04/11 18:21:42;;;;;;;;;;;;;;;7.63;100.00;95524.59;10525247;28;1724;-80
2023/04/11 18:26:47;;;;;;;;;;;;;;;7.50;100.00;95540.06;10509570;28;1565;-80
2023/04/11 18:31:50;;;;;;;;;;;;;;;7.47;100.00;95540.59;10541221;28;1902;-79
2023/04/11 18:36:53;;;;;;;;;;;;;;;7.38;100.00;95538.66;10539010;28;1478;-80
2023/04/11 18:42:03;;;;;;;;;;;;;;;7.26;100.00;95539.66;10524260;28;1459;-79
2023/04/11 18:47:06;;;;;;;;;;;;;;;7.22;100.00;95545.78;10532317;28;1443;-79
2023/04/11 18:52:14;;;;;;;;;;;;;;;7.02;100.00;95547.25;10535044;28;1910;-78
2023/04/11 18:57:16;;;;;;;;;;;;;;;7.01;100.00;95540.31;10518021;28;1436;-80
2023/04/11 19:02:19;;;;;;;;;;;;;;;6.96;100.00;95547.47;10523816;28;1131;-79
2023/04/11 19:07:22;;;;;;;;;;;;;;;6.88;100.00;95547.97;10532040;28;1475;-80
2023/04/11 19:12:25;;;;;;;;;;;;;;;6.78;100.00;95541.44;10517308;28;1899;-80
2023/04/11 19:17:28;;;;;;;;;;;;;;;6.76;100.00;95540.13;10526151;28;1143;-80
2023/04/11 19:22:31;;;;;;;;;;;;;;;6.72;100.00;95536.31;10523276;28;1424;-79
2023/04/11 19:27:34;;;;;;;;;;;;;;;6.62;100.00;95538.94;10536682;28;1748;-79
2023/04/11 19:32:37;;;;;;;;;;;;;;;6.58;100.00;95545.81;10529986;28;1909;-78
2023/04/11 19:37:40;;;;;;;;;;;;;;;6.50;100.00;95553.25;10536806;28;1455;-80
2023/04/11 19:42:43;;;;;;;;;;;;;;;6.46;100.00;95548.66;10534876;28;1416;-81
2023/04/11 19:47:46;;;;;;;;;;;;;;;6.41;100.00;95540.59;10523807;28;1108;-80
2023/04/11 19:52:50;;;;;;;;;;;;;;;6.34;100.00;95527.44;10528656;28;1909;-81
2023/04/11 19:57:52;;;;;;;;;;;;;;;6.27;100.00;95524.19;10511870;28;1112;-78
2023/04/11 20:02:56;;;;;;;;;;;;;;;6.26;100.00;95517.22;10519231;28;1459;-80
2023/04/11 20:07:59;;;;;;;;;;;;;;;6.17;100.00;95524.06;10528527;28;1160;-79
2023/04/11 20:13:03;;;;;;;;;;;;;;;6.11;100.00;95511.75;10526578;28;1902;-79
2023/04/11 20:18:05;;;;;;;;;;;;;;;5.97;100.00;95509.47;10531995;28;1491;-79
2023/04/11 20:23:09;;;;;;;;;;;;;;;5.82;100.00;95506.59;10517175;28;1124;-79
2023/04/11 20:28:11;;;;;;;;;;;;;;;5.82;100.00;95501.28;10527849;28;1444;-79
2023/04/11 20:33:14;;;;;;;;;;;;;;;5.78;100.00;95502.00;10522563;28;1983;-78
2023/04/11 20:38:17;;;;;;;;;;;;;;;5.76;100.00;95496.13;10528759;28;1640;-80
2023/04/11 20:43:19;;;;;;;;;;;;;;;5.74;100.00;95499.06;10537785;28;1427;-79
2023/04/11 20:48:24;;;;;;;;;;;;;;;5.60;100.00;95497.81;10523553;28;1700;-80
2023/04/11 20:53:27;;;;;;;;;;;;;;;5.53;100.00;95497.19;10524441;28;1909;-78
2023/04/11 20:58:31;;;;;;;;;;;;;;;5.49;100.00;95498.75;10526435;28;1821;-79
2023/04/11 21:03:35;;;;;;;;;;;;;;;5.45;100.00;95495.75;10528592;28;1487;-79
2023/04/11 21:08:39;;;;;;;;;;;;;;;5.41;100.00;95486.66;10528856;28;1448;-81
2023/04/11 21:13:43;;;;;;;;;;;;;;;5.35;100.00;95491.13;10511900;28;1954;-79
2023/04/11 21:18:47;;;;;;;;;;;;;;;5.32;100.00;95480.13;10522561;28;1452;-78
2023/04/11 21:23:50;;;;;;;;;;;;;;;5.32;100.00;95480.13;10532854;28;1112;-79
2023/04/11 21:28:53;;;;;;;;;;;;;;;5.24;100.00;95473.38;10524202;28;1511;-79
2023/04/11 21:33:55;;;;;;;;;;;;;;;5.11;100.00;95465.75;10536255;28;1922;-79
2023/04/11 21:38:58;;;;;;;;;;;;;;;5.07;100.00;95460.09;10533710;28;1520;-78
2023/04/11 21:44:01;;;;;;;;;;;;;;;5.06;100.00;95449.69;10513284;28;1697;-78
2023/04/11 21:49:13;;;;;;;;;;;;;;;4.98;100.00;95453.59;10524330;28;1499;-78
2023/04/11 21:54:16;;;;;;;;;;;;;;;5.01;100.00;95444.28;10517221;28;1910;-78
2023/04/11 21:59:18;;;;;;;;;;;;;;;5.03;100.00;95427.03;10534482;28;1383;-80
2023/04/11 22:04:21;;;;;;;;;;;;;;;5.01;100.00;95420.31;10517235;28;1427;-80
2023/04/11 22:09:24;;;;;;;;;;;;;;;4.91;100.00;95425.53;10510892;28;1518;-79
2023/04/11 22:14:28;;;;;;;;;;;;;;;4.90;100.00;95411.41;10508880;28;1914;-79
2023/04/11 22:19:41;;;;;;;;;;;;;;;4.93;100.00;95413.56;10533293;28;1491;-78
2023/04/11 22:24:45;;;;;;;;;;;;;;;4.85;100.00;95406.81;10541725;28;1171;-78
2023/04/11 22:29:48;;;;;;;;;;;;;;;4.86;100.00;95397.78;10529865;28;1427;-79
2023/04/11 22:34:50;;;;;;;;;;;;;;;4.86;100.00;95389.78;10535224;28;1948;-79
2023/04/11 22:39:53;;;;;;;;;;;;;;;4.86;100.00;95384.47;10525883;28;1709;-78
2023/04/11 22:44:56;;;;;;;;;;;;;;;4.94;100.00;95374.41;10528715;28;1432;-79
2023/04/11 22:49:59;;;;;;;;;;;;;;;5.06;100.00;95362.59;10527606;28;1910;-78
2023/04/11 22:55:03;;;;;;;;;;;;;;;5.16;100.00;95367.25;10521420;28;1234;-80
2023/04/11 23:00:06;;;;;;;;;;;;;;;5.26;100.00;95359.34;10519507;28;1502;-78
2023/04/11 23:05:09;;;;;;;;;;;;;;;5.28;100.00;95346.59;10535803;28;1156;-79
2023/04/11 23:10:13;;;;;;;;;;;;;;;5.27;100.00;95346.81;10523533;28;1971;-79
2023/04/11 23:15:18;;;;;;;;;;;;;;;5.26;100.00;95338.03;10516389;28;1120;-78
2023/04/11 23:20:21;;;;;;;;;;;;;;;5.32;100.00;95326.38;10518804;28;1463;-78
2023/04/11 23:25:25;;;;;;;;;;;;;;;5.32;100.00;95318.38;10521120;28;1120;-78
2023/04/11 23:30:28;;;;;;;;;;;;;;;5.32;100.00;95305.03;10547680;28;1914;-78
2023/04/11 23:35:32;;;;;;;;;;;;;;;5.43;100.00;95296.09;10553219;28;1416;-77
2023/04/11 23:40:37;;;;;;;;;;;;;;;5.42;100.00;95291.03;10551298;28;1387;-78
2023/04/11 23:45:40;;;;;;;;;;;;;;;5.47;100.00;95282.25;10543563;28;1665;-79
2023/04/11 23:50:42;;;;;;;;;;;;;;;5.52;100.00;95267.09;10547868;28;1910;-78
2023/04/11 23:55:45;;;;;;;;;;;;;;;5.58;100.00;95266.09;10525853;28;1160;-78
